Portada
METAR-TAF:

METAR-TAF

Aeropuertos :

George, Sudáfrica

latitud: 34-00S, longitud: 022-23E, altitud: 193 m

Observación

El informe se hizo hace 29 minutos, a las 20:00 UTC
Viento 7 kt del este
Temperatura 15°C
Humedad 77%
Presión 1025 hPa

METAR: FAGG 262000Z AUTO 09007KT //// // ////// 15/11 Q1025

Hora: 22:29 (20:29 UTC)

Pronóstico

El informe se hizo hace 2 horas y 29 minutos, a las 18:00 UTC
Pronóstico válido del 26 a las 18 UTC al 27 a las 18 UTC
Viento 10 kt del este-sureste
Visibilidad 10 km o más
Escasas nubes a una altura de 3500 ft
Nubes dispersas a una altura de 4000 ft
A partir de las 27 a las 0000 UTC
Viento 8 kt del este-noreste
Visibilidad 10 km o más
Nubes dispersas a una altura de 4000 ft
Evolucionando progresivamente
del 27 a las 08 UTC al 27 a las 10 UTC
Viento 15 kt del sur-sureste

TAF: FAGG 261800Z 2618/2718 12010KT 9999 FEW035 SCT040 TX25/2712Z TN15/2704Z FM270000 06008KT 9999 SCT040 BECMG 2708/2710 16015KT

Observaciones y pronósticos meteorológicos de más de 4000 aeropuertos (mensajes METAR y TAF).

Los puntos amarillos y rojos representan las estaciones disponibles.

Ponga el ratón en el punto deseado para ver el nombre de la estación.

Haga clic para ver las observaciones y los pronósticos meteorológicos.

Para cambiar el mapa : haga clic en los botones verdes con una cruz de color negro para hacer un zoom, en el botón verde con un guión para alejar o en las flechas verdes para mapas adyacentes.


METAR-TAF: